sensor_id;sensor_type;location;lat;lon;timestamp;temperature;humidity
983;DHT22;480;48.124;11.578;2022-07-04T00:01:49;22.90;99.90
983;DHT22;480;48.124;11.578;2022-07-04T00:04:16;23.00;99.90
983;DHT22;480;48.124;11.578;2022-07-04T00:06:43;23.00;99.90
983;DHT22;480;48.124;11.578;2022-07-04T00:09:10;22.90;99.90
983;DHT22;480;48.124;11.578;2022-07-04T00:11:37;22.90;99.90
983;DHT22;480;48.124;11.578;2022-07-04T00:14:06;22.90;99.90
983;DHT22;480;48.124;11.578;2022-07-04T00:16:33;22.80;99.90
983;DHT22;480;48.124;11.578;2022-07-04T00:19:01;22.80;99.90
983;DHT22;480;48.124;11.578;2022-07-04T00:21:28;22.70;99.90
983;DHT22;480;48.124;11.578;2022-07-04T00:23:55;22.70;99.90
983;DHT22;480;48.124;11.578;2022-07-04T00:26:22;22.60;99.90
983;DHT22;480;48.124;11.578;2022-07-04T00:28:49;22.70;99.90
983;DHT22;480;48.124;11.578;2022-07-04T00:31:18;22.60;99.90
983;DHT22;480;48.124;11.578;2022-07-04T00:33:45;22.40;99.90
983;DHT22;480;48.124;11.578;2022-07-04T00:36:12;22.40;99.90
983;DHT22;480;48.124;11.578;2022-07-04T00:38:39;22.40;99.90
983;DHT22;480;48.124;11.578;2022-07-04T00:41:06;22.30;99.90
983;DHT22;480;48.124;11.578;2022-07-04T00:43:33;22.40;99.90
983;DHT22;480;48.124;11.578;2022-07-04T00:46:03;22.40;99.90
983;DHT22;480;48.124;11.578;2022-07-04T00:48:31;22.40;99.90
983;DHT22;480;48.124;11.578;2022-07-04T00:50:59;22.40;99.90
983;DHT22;480;48.124;11.578;2022-07-04T00:53:26;22.40;99.90
983;DHT22;480;48.124;11.578;2022-07-04T00:55:53;22.60;99.90
983;DHT22;480;48.124;11.578;2022-07-04T00:58:22;22.60;99.90
983;DHT22;480;48.124;11.578;2022-07-04T01:00:50;22.70;99.90
983;DHT22;480;48.124;11.578;2022-07-04T01:03:17;22.70;99.90
983;DHT22;480;48.124;11.578;2022-07-04T01:05:45;22.70;99.90
983;DHT22;480;48.124;11.578;2022-07-04T01:08:12;22.70;99.90
983;DHT22;480;48.124;11.578;2022-07-04T01:10:40;22.60;99.90
983;DHT22;480;48.124;11.578;2022-07-04T01:13:08;22.60;99.90
983;DHT22;480;48.124;11.578;2022-07-04T01:15:45;22.40;99.90
983;DHT22;480;48.124;11.578;2022-07-04T01:18:12;22.30;99.90
983;DHT22;480;48.124;11.578;2022-07-04T01:20:40;22.20;99.90
983;DHT22;480;48.124;11.578;2022-07-04T01:23:08;22.30;99.90
983;DHT22;480;48.124;11.578;2022-07-04T01:25:36;22.30;99.90
983;DHT22;480;48.124;11.578;2022-07-04T01:28:04;22.20;99.90
983;DHT22;480;48.124;11.578;2022-07-04T01:30:33;22.30;99.90
983;DHT22;480;48.124;11.578;2022-07-04T01:33:00;22.40;99.90
983;DHT22;480;48.124;11.578;2022-07-04T01:35:27;22.50;99.90
983;DHT22;480;48.124;11.578;2022-07-04T01:37:56;22.50;99.90
983;DHT22;480;48.124;11.578;2022-07-04T01:40:23;22.50;99.90
983;DHT22;480;48.124;11.578;2022-07-04T01:42:50;22.60;99.90
983;DHT22;480;48.124;11.578;2022-07-04T01:45:17;22.60;99.90
983;DHT22;480;48.124;11.578;2022-07-04T01:47:44;22.70;99.90
983;DHT22;480;48.124;11.578;2022-07-04T01:50:12;22.70;99.90
983;DHT22;480;48.124;11.578;2022-07-04T01:52:39;22.70;99.90
983;DHT22;480;48.124;11.578;2022-07-04T01:55:09;22.80;99.90
983;DHT22;480;48.124;11.578;2022-07-04T01:57:36;22.90;99.90
983;DHT22;480;48.124;11.578;2022-07-04T02:00:05;22.90;99.90
983;DHT22;480;48.124;11.578;2022-07-04T02:02:50;22.90;99.90
983;DHT22;480;48.124;11.578;2022-07-04T02:05:17;22.90;99.90
983;DHT22;480;48.124;11.578;2022-07-04T02:07:44;22.90;99.90
983;DHT22;480;48.124;11.578;2022-07-04T02:10:13;22.90;99.90
983;DHT22;480;48.124;11.578;2022-07-04T02:12:40;22.90;99.90
983;DHT22;480;48.124;11.578;2022-07-04T02:15:24;22.80;99.90
983;DHT22;480;48.124;11.578;2022-07-04T02:17:51;22.90;99.90
983;DHT22;480;48.124;11.578;2022-07-04T02:20:18;23.00;99.90
983;DHT22;480;48.124;11.578;2022-07-04T02:22:45;22.90;99.90
983;DHT22;480;48.124;11.578;2022-07-04T02:25:14;22.90;99.90
983;DHT22;480;48.124;11.578;2022-07-04T02:27:41;22.90;99.90
983;DHT22;480;48.124;11.578;2022-07-04T02:30:08;22.80;99.90
983;DHT22;480;48.124;11.578;2022-07-04T02:32:35;22.90;99.90
983;DHT22;480;48.124;11.578;2022-07-04T02:35:03;22.90;99.90
983;DHT22;480;48.124;11.578;2022-07-04T02:37:30;22.80;99.90
983;DHT22;480;48.124;11.578;2022-07-04T02:39:57;22.90;99.90
983;DHT22;480;48.124;11.578;2022-07-04T02:42:28;22.90;99.90
983;DHT22;480;48.124;11.578;2022-07-04T02:44:55;23.00;99.90
983;DHT22;480;48.124;11.578;2022-07-04T02:47:22;23.00;99.90
983;DHT22;480;48.124;11.578;2022-07-04T02:49:49;22.90;99.90
983;DHT22;480;48.124;11.578;2022-07-04T02:52:16;22.90;99.90
983;DHT22;480;48.124;11.578;2022-07-04T02:54:43;22.80;99.90
983;DHT22;480;48.124;11.578;2022-07-04T02:57:12;22.90;99.90
983;DHT22;480;48.124;11.578;2022-07-04T02:59:41;22.90;99.90
983;DHT22;480;48.124;11.578;2022-07-04T03:02:08;22.90;99.90
983;DHT22;480;48.124;11.578;2022-07-04T03:04:35;22.90;99.90
983;DHT22;480;48.124;11.578;2022-07-04T03:07:05;22.90;99.90
983;DHT22;480;48.124;11.578;2022-07-04T03:09:32;22.80;99.90
983;DHT22;480;48.124;11.578;2022-07-04T03:11:59;22.80;99.90
983;DHT22;480;48.124;11.578;2022-07-04T03:14:26;22.80;99.90
983;DHT22;480;48.124;11.578;2022-07-04T03:16:55;22.90;99.90
983;DHT22;480;48.124;11.578;2022-07-04T03:19:22;22.90;99.90
983;DHT22;480;48.124;11.578;2022-07-04T03:21:49;22.90;99.90
983;DHT22;480;48.124;11.578;2022-07-04T03:24:16;22.90;99.90
983;DHT22;480;48.124;11.578;2022-07-04T03:26:43;22.90;99.90
983;DHT22;480;48.124;11.578;2022-07-04T03:29:10;22.50;99.90
983;DHT22;480;48.124;11.578;2022-07-04T03:31:37;22.50;99.90
983;DHT22;480;48.124;11.578;2022-07-04T03:34:05;22.50;99.90
983;DHT22;480;48.124;11.578;2022-07-04T03:36:32;22.10;99.90
983;DHT22;480;48.124;11.578;2022-07-04T03:39:00;22.30;99.90
983;DHT22;480;48.124;11.578;2022-07-04T03:41:27;22.40;99.90
983;DHT22;480;48.124;11.578;2022-07-04T03:43:54;22.50;99.90
983;DHT22;480;48.124;11.578;2022-07-04T03:46:21;22.50;99.90
983;DHT22;480;48.124;11.578;2022-07-04T03:48:48;22.50;99.90
983;DHT22;480;48.124;11.578;2022-07-04T03:51:16;22.50;99.90
983;DHT22;480;48.124;11.578;2022-07-04T03:53:43;22.40;99.90
983;DHT22;480;48.124;11.578;2022-07-04T03:56:10;22.40;99.90
983;DHT22;480;48.124;11.578;2022-07-04T03:58:37;22.30;99.90
983;DHT22;480;48.124;11.578;2022-07-04T04:01:04;22.10;99.90
983;DHT22;480;48.124;11.578;2022-07-04T04:03:31;22.30;99.90
983;DHT22;480;48.124;11.578;2022-07-04T04:06:16;22.00;99.90
983;DHT22;480;48.124;11.578;2022-07-04T04:08:44;22.20;99.90
983;DHT22;480;48.124;11.578;2022-07-04T04:11:11;22.40;99.90
983;DHT22;480;48.124;11.578;2022-07-04T04:13:38;22.50;99.90
983;DHT22;480;48.124;11.578;2022-07-04T04:16:05;22.50;99.90
983;DHT22;480;48.124;11.578;2022-07-04T04:18:32;22.40;99.90
983;DHT22;480;48.124;11.578;2022-07-04T04:20:59;22.30;99.90
983;DHT22;480;48.124;11.578;2022-07-04T04:23:27;22.30;99.90
983;DHT22;480;48.124;11.578;2022-07-04T04:25:54;22.20;99.90
983;DHT22;480;48.124;11.578;2022-07-04T04:28:22;21.90;99.90
983;DHT22;480;48.124;11.578;2022-07-04T04:30:50;22.00;99.90
983;DHT22;480;48.124;11.578;2022-07-04T04:33:17;22.20;99.90
983;DHT22;480;48.124;11.578;2022-07-04T04:35:44;22.20;99.90
983;DHT22;480;48.124;11.578;2022-07-04T04:38:11;22.10;99.90
983;DHT22;480;48.124;11.578;2022-07-04T04:40:39;22.10;99.90
983;DHT22;480;48.124;11.578;2022-07-04T04:43:06;22.20;99.90
983;DHT22;480;48.124;11.578;2022-07-04T04:45:33;22.40;99.90
983;DHT22;480;48.124;11.578;2022-07-04T04:48:00;22.60;99.90
983;DHT22;480;48.124;11.578;2022-07-04T04:50:27;22.40;99.90
983;DHT22;480;48.124;11.578;2022-07-04T04:52:54;22.20;99.90
983;DHT22;480;48.124;11.578;2022-07-04T04:55:23;22.50;99.90
983;DHT22;480;48.124;11.578;2022-07-04T04:57:51;22.70;99.90
983;DHT22;480;48.124;11.578;2022-07-04T05:00:19;22.80;99.90
983;DHT22;480;48.124;11.578;2022-07-04T05:02:46;22.90;99.90
983;DHT22;480;48.124;11.578;2022-07-04T05:05:13;23.00;99.90
983;DHT22;480;48.124;11.578;2022-07-04T05:07:40;23.10;99.90
983;DHT22;480;48.124;11.578;2022-07-04T05:10:08;23.10;99.90
983;DHT22;480;48.124;11.578;2022-07-04T05:12:36;23.00;99.90
983;DHT22;480;48.124;11.578;2022-07-04T05:15:05;23.00;99.90
983;DHT22;480;48.124;11.578;2022-07-04T05:17:32;23.00;99.90
983;DHT22;480;48.124;11.578;2022-07-04T05:19:59;22.90;99.90
983;DHT22;480;48.124;11.578;2022-07-04T05:22:26;22.80;99.90
983;DHT22;480;48.124;11.578;2022-07-04T05:24:53;22.70;99.90
983;DHT22;480;48.124;11.578;2022-07-04T05:27:20;22.60;99.90
983;DHT22;480;48.124;11.578;2022-07-04T05:29:47;22.50;99.90
983;DHT22;480;48.124;11.578;2022-07-04T05:32:15;22.50;99.90
983;DHT22;480;48.124;11.578;2022-07-04T05:34:42;22.60;99.90
983;DHT22;480;48.124;11.578;2022-07-04T05:37:09;22.50;99.90
983;DHT22;480;48.124;11.578;2022-07-04T05:39:36;22.60;99.90
983;DHT22;480;48.124;11.578;2022-07-04T05:42:04;22.60;99.90
983;DHT22;480;48.124;11.578;2022-07-04T05:44:31;22.60;99.90
983;DHT22;480;48.124;11.578;2022-07-04T05:46:58;22.60;99.90
983;DHT22;480;48.124;11.578;2022-07-04T05:49:26;22.60;99.90
983;DHT22;480;48.124;11.578;2022-07-04T05:51:53;22.50;99.90
983;DHT22;480;48.124;11.578;2022-07-04T05:54:20;22.40;99.90
983;DHT22;480;48.124;11.578;2022-07-04T05:56:47;22.40;99.90
983;DHT22;480;48.124;11.578;2022-07-04T05:59:14;22.30;99.90
983;DHT22;480;48.124;11.578;2022-07-04T06:01:41;22.30;99.90
983;DHT22;480;48.124;11.578;2022-07-04T06:04:08;22.40;99.90
983;DHT22;480;48.124;11.578;2022-07-04T06:06:37;22.20;99.90
983;DHT22;480;48.124;11.578;2022-07-04T06:09:04;22.30;99.90
983;DHT22;480;48.124;11.578;2022-07-04T06:11:31;22.30;99.90
983;DHT22;480;48.124;11.578;2022-07-04T06:13:58;22.20;99.90
983;DHT22;480;48.124;11.578;2022-07-04T06:16:25;22.10;99.90
983;DHT22;480;48.124;11.578;2022-07-04T06:18:52;22.10;99.90
983;DHT22;480;48.124;11.578;2022-07-04T06:21:19;22.10;99.90
983;DHT22;480;48.124;11.578;2022-07-04T06:23:47;22.10;99.90
983;DHT22;480;48.124;11.578;2022-07-04T06:26:14;22.00;99.90
983;DHT22;480;48.124;11.578;2022-07-04T06:28:41;22.00;99.90
983;DHT22;480;48.124;11.578;2022-07-04T06:31:08;22.00;99.90
983;DHT22;480;48.124;11.578;2022-07-04T06:33:37;22.00;99.90
983;DHT22;480;48.124;11.578;2022-07-04T06:36:17;21.90;99.90
983;DHT22;480;48.124;11.578;2022-07-04T06:38:44;21.80;99.90
983;DHT22;480;48.124;11.578;2022-07-04T06:41:13;21.80;99.90
983;DHT22;480;48.124;11.578;2022-07-04T06:43:40;21.80;99.90
983;DHT22;480;48.124;11.578;2022-07-04T06:46:07;21.80;99.90
983;DHT22;480;48.124;11.578;2022-07-04T06:48:34;21.70;99.90
983;DHT22;480;48.124;11.578;2022-07-04T06:51:02;21.70;99.90
983;DHT22;480;48.124;11.578;2022-07-04T06:53:30;21.60;99.90
983;DHT22;480;48.124;11.578;2022-07-04T06:55:57;21.60;99.90
983;DHT22;480;48.124;11.578;2022-07-04T06:58:26;21.60;99.90
983;DHT22;480;48.124;11.578;2022-07-04T07:00:53;21.80;99.90
983;DHT22;480;48.124;11.578;2022-07-04T07:03:20;21.90;99.90
983;DHT22;480;48.124;11.578;2022-07-04T07:05:47;21.70;99.90
983;DHT22;480;48.124;11.578;2022-07-04T07:08:14;21.60;99.90
983;DHT22;480;48.124;11.578;2022-07-04T07:10:41;21.40;99.90
983;DHT22;480;48.124;11.578;2022-07-04T07:13:08;21.30;99.90
983;DHT22;480;48.124;11.578;2022-07-04T07:15:37;21.30;99.90
983;DHT22;480;48.124;11.578;2022-07-04T07:18:04;21.30;99.90
983;DHT22;480;48.124;11.578;2022-07-04T07:20:32;21.30;99.90
983;DHT22;480;48.124;11.578;2022-07-04T07:23:01;21.40;99.90
983;DHT22;480;48.124;11.578;2022-07-04T07:25:29;21.30;99.90
983;DHT22;480;48.124;11.578;2022-07-04T07:27:56;21.30;99.90
983;DHT22;480;48.124;11.578;2022-07-04T07:30:23;21.30;99.90
983;DHT22;480;48.124;11.578;2022-07-04T07:32:52;21.40;99.90
983;DHT22;480;48.124;11.578;2022-07-04T07:35:19;21.30;99.90
983;DHT22;480;48.124;11.578;2022-07-04T07:37:47;21.20;99.90
983;DHT22;480;48.124;11.578;2022-07-04T07:40:14;21.10;99.90
983;DHT22;480;48.124;11.578;2022-07-04T07:42:41;21.10;99.90
983;DHT22;480;48.124;11.578;2022-07-04T07:45:08;21.00;99.90
983;DHT22;480;48.124;11.578;2022-07-04T07:47:35;21.10;99.90
983;DHT22;480;48.124;11.578;2022-07-04T07:50:05;21.20;99.90
983;DHT22;480;48.124;11.578;2022-07-04T07:52:32;21.30;99.90
983;DHT22;480;48.124;11.578;2022-07-04T07:55:00;21.40;99.90
983;DHT22;480;48.124;11.578;2022-07-04T07:57:27;21.60;99.90
983;DHT22;480;48.124;11.578;2022-07-04T07:59:54;21.80;99.90
983;DHT22;480;48.124;11.578;2022-07-04T08:02:22;21.90;99.90
983;DHT22;480;48.124;11.578;2022-07-04T08:05:12;22.10;99.90
983;DHT22;480;48.124;11.578;2022-07-04T08:07:38;21.80;99.90
983;DHT22;480;48.124;11.578;2022-07-04T08:10:06;21.80;99.90
983;DHT22;480;48.124;11.578;2022-07-04T08:12:34;21.80;99.90
983;DHT22;480;48.124;11.578;2022-07-04T08:15:01;22.00;99.90
983;DHT22;480;48.124;11.578;2022-07-04T08:17:29;22.20;99.90
983;DHT22;480;48.124;11.578;2022-07-04T08:19:56;22.30;99.90
983;DHT22;480;48.124;11.578;2022-07-04T08:22:24;22.50;99.90
983;DHT22;480;48.124;11.578;2022-07-04T08:24:51;22.50;99.90
983;DHT22;480;48.124;11.578;2022-07-04T08:27:19;22.80;99.90
983;DHT22;480;48.124;11.578;2022-07-04T08:29:48;22.90;99.90
983;DHT22;480;48.124;11.578;2022-07-04T08:32:15;23.00;99.90
983;DHT22;480;48.124;11.578;2022-07-04T08:34:42;23.00;99.90
983;DHT22;480;48.124;11.578;2022-07-04T08:37:09;23.10;99.90
983;DHT22;480;48.124;11.578;2022-07-04T08:39:42;23.20;99.90
983;DHT22;480;48.124;11.578;2022-07-04T08:42:12;23.20;99.90
983;DHT22;480;48.124;11.578;2022-07-04T08:44:40;23.10;99.90
983;DHT22;480;48.124;11.578;2022-07-04T08:47:18;23.10;99.90
983;DHT22;480;48.124;11.578;2022-07-04T08:49:52;23.30;99.90
983;DHT22;480;48.124;11.578;2022-07-04T08:52:28;23.20;99.90
983;DHT22;480;48.124;11.578;2022-07-04T08:55:00;23.20;99.90
983;DHT22;480;48.124;11.578;2022-07-04T08:57:46;23.20;99.90
983;DHT22;480;48.124;11.578;2022-07-04T09:00:46;23.30;99.90
983;DHT22;480;48.124;11.578;2022-07-04T09:03:13;23.60;99.90
983;DHT22;480;48.124;11.578;2022-07-04T09:05:42;23.70;99.90
983;DHT22;480;48.124;11.578;2022-07-04T09:08:09;23.80;99.90
983;DHT22;480;48.124;11.578;2022-07-04T09:10:38;23.90;99.90
983;DHT22;480;48.124;11.578;2022-07-04T09:13:06;24.10;99.90
983;DHT22;480;48.124;11.578;2022-07-04T09:15:34;24.10;99.90
983;DHT22;480;48.124;11.578;2022-07-04T09:18:02;24.20;99.90
983;DHT22;480;48.124;11.578;2022-07-04T09:20:31;24.30;99.90
983;DHT22;480;48.124;11.578;2022-07-04T09:22:59;24.40;99.90
983;DHT22;480;48.124;11.578;2022-07-04T09:25:26;24.50;99.90
983;DHT22;480;48.124;11.578;2022-07-04T09:27:56;24.80;99.90
983;DHT22;480;48.124;11.578;2022-07-04T09:30:26;24.90;99.90
983;DHT22;480;48.124;11.578;2022-07-04T09:32:55;25.00;99.90
983;DHT22;480;48.124;11.578;2022-07-04T09:35:27;25.10;99.90
983;DHT22;480;48.124;11.578;2022-07-04T09:37:56;25.30;99.90
983;DHT22;480;48.124;11.578;2022-07-04T09:40:26;25.30;99.90
983;DHT22;480;48.124;11.578;2022-07-04T09:42:58;25.30;99.90
983;DHT22;480;48.124;11.578;2022-07-04T09:45:26;25.50;99.90
983;DHT22;480;48.124;11.578;2022-07-04T09:47:58;25.60;99.90
983;DHT22;480;48.124;11.578;2022-07-04T09:50:30;25.60;99.90
983;DHT22;480;48.124;11.578;2022-07-04T09:52:59;25.70;99.90
983;DHT22;480;48.124;11.578;2022-07-04T09:55:28;25.80;99.90
983;DHT22;480;48.124;11.578;2022-07-04T09:57:58;25.90;99.90
983;DHT22;480;48.124;11.578;2022-07-04T10:00:27;26.00;99.90
983;DHT22;480;48.124;11.578;2022-07-04T10:02:55;26.20;99.90
983;DHT22;480;48.124;11.578;2022-07-04T10:05:25;26.10;99.90
983;DHT22;480;48.124;11.578;2022-07-04T10:07:54;26.20;99.90
983;DHT22;480;48.124;11.578;2022-07-04T10:10:31;26.30;99.90
983;DHT22;480;48.124;11.578;2022-07-04T10:13:02;26.20;99.90
983;DHT22;480;48.124;11.578;2022-07-04T10:15:31;26.40;99.90
983;DHT22;480;48.124;11.578;2022-07-04T10:17:58;26.50;99.90
983;DHT22;480;48.124;11.578;2022-07-04T10:20:26;26.50;99.90
983;DHT22;480;48.124;11.578;2022-07-04T10:22:53;26.50;99.90
983;DHT22;480;48.124;11.578;2022-07-04T10:25:20;26.30;99.90
983;DHT22;480;48.124;11.578;2022-07-04T10:27:47;26.30;99.90
983;DHT22;480;48.124;11.578;2022-07-04T10:30:22;26.40;99.90
983;DHT22;480;48.124;11.578;2022-07-04T10:32:51;26.50;99.90
983;DHT22;480;48.124;11.578;2022-07-04T10:35:51;26.50;99.90
983;DHT22;480;48.124;11.578;2022-07-04T10:38:23;26.30;99.90
983;DHT22;480;48.124;11.578;2022-07-04T10:40:51;26.30;99.90
983;DHT22;480;48.124;11.578;2022-07-04T10:43:59;26.30;99.90
983;DHT22;480;48.124;11.578;2022-07-04T10:46:43;26.40;99.90
983;DHT22;480;48.124;11.578;2022-07-04T10:49:20;26.60;99.90
983;DHT22;480;48.124;11.578;2022-07-04T10:51:48;26.60;99.90
983;DHT22;480;48.124;11.578;2022-07-04T10:54:16;26.60;99.90
983;DHT22;480;48.124;11.578;2022-07-04T10:56:52;26.30;99.90
983;DHT22;480;48.124;11.578;2022-07-04T10:59:22;26.40;99.90
983;DHT22;480;48.124;11.578;2022-07-04T11:04:59;26.20;99.90
983;DHT22;480;48.124;11.578;2022-07-04T11:07:55;26.10;99.90
983;DHT22;480;48.124;11.578;2022-07-04T11:10:22;26.00;99.90
983;DHT22;480;48.124;11.578;2022-07-04T11:13:06;26.20;99.90
983;DHT22;480;48.124;11.578;2022-07-04T11:16:06;26.30;99.90
983;DHT22;480;48.124;11.578;2022-07-04T11:18:42;26.40;99.90
983;DHT22;480;48.124;11.578;2022-07-04T11:21:23;26.50;99.90
983;DHT22;480;48.124;11.578;2022-07-04T11:23:51;26.80;99.90
983;DHT22;480;48.124;11.578;2022-07-04T11:26:23;26.80;99.90
983;DHT22;480;48.124;11.578;2022-07-04T11:28:50;26.90;99.90
983;DHT22;480;48.124;11.578;2022-07-04T11:31:17;26.90;99.90
983;DHT22;480;48.124;11.578;2022-07-04T11:33:46;27.10;99.90
983;DHT22;480;48.124;11.578;2022-07-04T11:36:15;27.30;99.90
983;DHT22;480;48.124;11.578;2022-07-04T11:38:52;27.40;99.90
983;DHT22;480;48.124;11.578;2022-07-04T11:41:22;27.70;99.90
983;DHT22;480;48.124;11.578;2022-07-04T11:44:08;27.70;99.90
983;DHT22;480;48.124;11.578;2022-07-04T11:47:17;27.80;99.90
983;DHT22;480;48.124;11.578;2022-07-04T11:49:48;28.20;99.90
983;DHT22;480;48.124;11.578;2022-07-04T11:52:17;28.50;99.90
983;DHT22;480;48.124;11.578;2022-07-04T11:54:45;28.60;99.90
983;DHT22;480;48.124;11.578;2022-07-04T11:57:15;28.60;99.10
983;DHT22;480;48.124;11.578;2022-07-04T11:59:42;28.60;97.60
983;DHT22;480;48.124;11.578;2022-07-04T12:02:11;28.50;97.60
983;DHT22;480;48.124;11.578;2022-07-04T12:04:41;28.80;97.50
983;DHT22;480;48.124;11.578;2022-07-04T12:07:11;28.80;96.70
983;DHT22;480;48.124;11.578;2022-07-04T12:09:39;28.50;98.20
983;DHT22;480;48.124;11.578;2022-07-04T12:12:08;28.50;98.60
983;DHT22;480;48.124;11.578;2022-07-04T12:14:35;28.70;98.70
983;DHT22;480;48.124;11.578;2022-07-04T12:17:16;29.00;97.70
983;DHT22;480;48.124;11.578;2022-07-04T12:19:57;29.00;98.20
983;DHT22;480;48.124;11.578;2022-07-04T12:22:31;29.10;97.70
983;DHT22;480;48.124;11.578;2022-07-04T12:25:01;28.70;96.90
983;DHT22;480;48.124;11.578;2022-07-04T12:27:29;28.80;97.30
983;DHT22;480;48.124;11.578;2022-07-04T12:29:58;28.80;97.90
983;DHT22;480;48.124;11.578;2022-07-04T12:32:43;28.80;97.70
983;DHT22;480;48.124;11.578;2022-07-04T12:35:33;28.70;98.00
983;DHT22;480;48.124;11.578;2022-07-04T12:38:03;29.00;98.20
983;DHT22;480;48.124;11.578;2022-07-04T12:40:30;29.20;98.00
983;DHT22;480;48.124;11.578;2022-07-04T12:42:58;29.40;97.70
983;DHT22;480;48.124;11.578;2022-07-04T12:45:26;29.60;97.70
983;DHT22;480;48.124;11.578;2022-07-04T12:48:17;29.70;96.30
983;DHT22;480;48.124;11.578;2022-07-04T12:50:45;29.80;96.50
983;DHT22;480;48.124;11.578;2022-07-04T12:53:14;29.50;96.00
983;DHT22;480;48.124;11.578;2022-07-04T12:55:42;29.50;96.40
983;DHT22;480;48.124;11.578;2022-07-04T12:58:09;29.60;96.00
983;DHT22;480;48.124;11.578;2022-07-04T13:00:38;29.40;96.00
983;DHT22;480;48.124;11.578;2022-07-04T13:03:05;29.40;96.60
983;DHT22;480;48.124;11.578;2022-07-04T13:05:34;29.40;95.90
983;DHT22;480;48.124;11.578;2022-07-04T13:08:01;29.50;96.10
983;DHT22;480;48.124;11.578;2022-07-04T13:10:30;29.60;96.20
983;DHT22;480;48.124;11.578;2022-07-04T13:12:59;29.60;96.10
983;DHT22;480;48.124;11.578;2022-07-04T13:15:28;29.70;97.50
983;DHT22;480;48.124;11.578;2022-07-04T13:17:56;30.00;97.20
983;DHT22;480;48.124;11.578;2022-07-04T13:20:23;30.30;97.20
983;DHT22;480;48.124;11.578;2022-07-04T13:22:51;30.70;95.70
983;DHT22;480;48.124;11.578;2022-07-04T13:25:18;30.80;96.00
983;DHT22;480;48.124;11.578;2022-07-04T13:27:47;30.90;96.10
983;DHT22;480;48.124;11.578;2022-07-04T13:30:14;30.90;95.30
983;DHT22;480;48.124;11.578;2022-07-04T13:32:42;31.00;94.10
983;DHT22;480;48.124;11.578;2022-07-04T13:35:09;31.00;94.40
983;DHT22;480;48.124;11.578;2022-07-04T13:37:36;31.20;93.30
983;DHT22;480;48.124;11.578;2022-07-04T13:40:05;31.20;92.90
983;DHT22;480;48.124;11.578;2022-07-04T13:42:32;31.00;93.40
983;DHT22;480;48.124;11.578;2022-07-04T13:45:17;30.60;94.60
983;DHT22;480;48.124;11.578;2022-07-04T13:47:44;31.00;94.50
983;DHT22;480;48.124;11.578;2022-07-04T13:50:12;31.30;94.70
983;DHT22;480;48.124;11.578;2022-07-04T13:52:39;31.30;94.30
983;DHT22;480;48.124;11.578;2022-07-04T13:55:06;31.30;94.50
983;DHT22;480;48.124;11.578;2022-07-04T13:57:34;31.20;94.70
983;DHT22;480;48.124;11.578;2022-07-04T14:00:01;31.00;94.90
983;DHT22;480;48.124;11.578;2022-07-04T14:02:29;30.70;95.00
983;DHT22;480;48.124;11.578;2022-07-04T14:04:56;30.30;95.00
983;DHT22;480;48.124;11.578;2022-07-04T14:07:24;29.60;95.70
983;DHT22;480;48.124;11.578;2022-07-04T14:09:51;29.70;96.20
983;DHT22;480;48.124;11.578;2022-07-04T14:12:18;29.80;96.40
983;DHT22;480;48.124;11.578;2022-07-04T14:14:46;29.80;96.00
983;DHT22;480;48.124;11.578;2022-07-04T14:17:13;29.90;95.60
983;DHT22;480;48.124;11.578;2022-07-04T14:19:41;29.90;95.00
983;DHT22;480;48.124;11.578;2022-07-04T14:22:08;30.00;95.00
983;DHT22;480;48.124;11.578;2022-07-04T14:24:35;30.20;94.80
983;DHT22;480;48.124;11.578;2022-07-04T14:27:03;30.40;93.70
983;DHT22;480;48.124;11.578;2022-07-04T14:29:30;30.60;93.90
983;DHT22;480;48.124;11.578;2022-07-04T14:31:59;30.80;93.40
983;DHT22;480;48.124;11.578;2022-07-04T14:34:26;30.60;93.60
983;DHT22;480;48.124;11.578;2022-07-04T14:36:55;30.80;93.60
983;DHT22;480;48.124;11.578;2022-07-04T14:39:23;30.60;93.20
983;DHT22;480;48.124;11.578;2022-07-04T14:41:50;30.50;93.40
983;DHT22;480;48.124;11.578;2022-07-04T14:44:17;30.70;93.10
983;DHT22;480;48.124;11.578;2022-07-04T14:46:45;30.50;94.10
983;DHT22;480;48.124;11.578;2022-07-04T14:49:12;30.30;95.00
983;DHT22;480;48.124;11.578;2022-07-04T14:51:39;30.50;94.70
983;DHT22;480;48.124;11.578;2022-07-04T14:54:08;30.50;94.80
983;DHT22;480;48.124;11.578;2022-07-04T14:56:36;30.40;94.30
983;DHT22;480;48.124;11.578;2022-07-04T14:59:04;30.50;94.90
983;DHT22;480;48.124;11.578;2022-07-04T15:01:32;30.80;94.70
983;DHT22;480;48.124;11.578;2022-07-04T15:03:59;30.50;94.00
983;DHT22;480;48.124;11.578;2022-07-04T15:06:27;30.30;93.90
983;DHT22;480;48.124;11.578;2022-07-04T15:08:54;30.30;92.80
983;DHT22;480;48.124;11.578;2022-07-04T15:11:22;30.30;93.70
983;DHT22;480;48.124;11.578;2022-07-04T15:13:50;30.50;94.50
983;DHT22;480;48.124;11.578;2022-07-04T15:16:17;30.60;95.00
983;DHT22;480;48.124;11.578;2022-07-04T15:18:44;30.70;94.80
983;DHT22;480;48.124;11.578;2022-07-04T15:21:11;30.70;94.70
983;DHT22;480;48.124;11.578;2022-07-04T15:23:56;30.10;95.30
983;DHT22;480;48.124;11.578;2022-07-04T15:26:41;29.70;95.50
983;DHT22;480;48.124;11.578;2022-07-04T15:29:08;29.30;95.70
983;DHT22;480;48.124;11.578;2022-07-04T15:31:35;29.30;97.00
983;DHT22;480;48.124;11.578;2022-07-04T15:34:02;29.40;95.70
983;DHT22;480;48.124;11.578;2022-07-04T15:36:29;29.30;95.90
983;DHT22;480;48.124;11.578;2022-07-04T15:38:56;29.10;97.20
983;DHT22;480;48.124;11.578;2022-07-04T15:41:23;29.20;96.40
983;DHT22;480;48.124;11.578;2022-07-04T15:43:52;29.20;96.10
983;DHT22;480;48.124;11.578;2022-07-04T15:46:19;28.90;96.20
983;DHT22;480;48.124;11.578;2022-07-04T15:48:47;28.60;97.10
983;DHT22;480;48.124;11.578;2022-07-04T15:51:14;28.60;97.20
983;DHT22;480;48.124;11.578;2022-07-04T15:53:42;28.80;97.30
983;DHT22;480;48.124;11.578;2022-07-04T15:56:09;28.70;96.60
983;DHT22;480;48.124;11.578;2022-07-04T15:58:36;28.80;96.60
983;DHT22;480;48.124;11.578;2022-07-04T16:01:04;28.90;96.30
983;DHT22;480;48.124;11.578;2022-07-04T16:03:32;28.90;96.50
983;DHT22;480;48.124;11.578;2022-07-04T16:05:59;29.00;97.50
983;DHT22;480;48.124;11.578;2022-07-04T16:08:26;29.30;96.40
983;DHT22;480;48.124;11.578;2022-07-04T16:10:53;29.20;95.50
983;DHT22;480;48.124;11.578;2022-07-04T16:13:20;29.20;95.90
983;DHT22;480;48.124;11.578;2022-07-04T16:15:47;29.20;96.40
983;DHT22;480;48.124;11.578;2022-07-04T16:18:15;29.00;97.00
983;DHT22;480;48.124;11.578;2022-07-04T16:20:42;28.90;95.90
983;DHT22;480;48.124;11.578;2022-07-04T16:23:09;29.00;96.40
983;DHT22;480;48.124;11.578;2022-07-04T16:25:36;29.10;96.00
983;DHT22;480;48.124;11.578;2022-07-04T16:28:03;29.10;95.80
983;DHT22;480;48.124;11.578;2022-07-04T16:30:30;29.00;96.00
983;DHT22;480;48.124;11.578;2022-07-04T16:32:57;28.80;95.70